Time;durP1;ratioP1;P1;durP2;ratioP2;P2;SDS_P1;SDS_P2;PMS_P1;PMS_P2;Temp;Humidity;BMP_temperature;BMP_pressure;BME280_temperature;BME280_humidity;BME280_pressure;Samples;Min_cycle;Max_cycle;Signal;HPM_P1;HPM_P2
2021/05/03 00:00:00;;;;;;;;;;;;;;;22.18;49.58;100061.91;5077429;28;818;-54
2021/05/03 00:02:26;;;;;;;;;;;;;;;21.82;50.31;100074.16;5077293;28;970;-57
2021/05/03 00:04:51;;;;;;;;;;;;;;;21.23;51.83;100065.50;5077333;28;1976;-49
2021/05/03 00:07:17;;;;;;;;;;;;;;;20.74;52.82;100071.84;5077215;28;854;-52
2021/05/03 00:09:42;;;;;;;;;;;;;;;21.26;52.19;100067.59;5077698;28;826;-62
2021/05/03 00:12:08;;;;;;;;;;;;;;;21.57;51.32;100066.69;5077293;28;1056;-62
2021/05/03 00:14:33;;;;;;;;;;;;;;;21.70;50.80;100076.81;5077305;28;742;-54
2021/05/03 00:16:59;;;;;;;;;;;;;;;21.52;50.39;100071.25;5076925;28;962;-59
2021/05/03 00:19:24;;;;;;;;;;;;;;;21.32;49.98;100074.59;5077305;28;863;-53
2021/05/03 00:21:49;;;;;;;;;;;;;;;21.20;49.90;100075.25;5077228;28;836;-53
2021/05/03 00:24:15;;;;;;;;;;;;;;;21.08;50.44;100072.28;5076984;28;1973;-56
2021/05/03 00:26:40;;;;;;;;;;;;;;;21.37;51.18;100075.25;5076512;28;827;-63
2021/05/03 00:29:07;;;;;;;;;;;;;;;21.58;51.39;100074.66;5076909;28;858;-53
2021/05/03 00:31:32;;;;;;;;;;;;;;;21.88;50.68;100069.28;5076606;28;1022;-54
2021/05/03 00:33:58;;;;;;;;;;;;;;;21.95;50.38;100057.72;5076936;28;811;-52
2021/05/03 00:36:23;;;;;;;;;;;;;;;22.14;49.91;100051.84;5076741;28;1040;-62
2021/05/03 00:38:49;;;;;;;;;;;;;;;22.17;49.75;100040.91;5076969;28;867;-58
2021/05/03 00:41:14;;;;;;;;;;;;;;;22.31;49.53;100042.66;5076954;28;874;-63
2021/05/03 00:43:39;;;;;;;;;;;;;;;21.85;50.47;100040.34;5076468;28;1917;-52
2021/05/03 00:46:05;;;;;;;;;;;;;;;21.53;51.51;100039.69;5076907;28;771;-50
2021/05/03 00:48:30;;;;;;;;;;;;;;;21.36;51.26;100045.16;5076095;28;966;-49
2021/05/03 00:50:56;;;;;;;;;;;;;;;21.11;52.08;100041.22;5076704;28;846;-62
2021/05/03 00:53:21;;;;;;;;;;;;;;;21.68;51.07;100049.44;5076977;28;760;-58
2021/05/03 00:55:47;;;;;;;;;;;;;;;21.62;51.34;100058.25;5076931;28;739;-58
2021/05/03 00:58:12;;;;;;;;;;;;;;;21.97;50.36;100052.69;5075660;28;1250;-57
2021/05/03 01:00:37;;;;;;;;;;;;;;;22.22;49.58;100057.34;5076968;28;807;-57
2021/05/03 01:03:03;;;;;;;;;;;;;;;22.34;49.23;100050.34;5076041;28;955;-51
2021/05/03 01:05:29;;;;;;;;;;;;;;;21.83;50.29;100052.88;5076502;28;1910;-59
2021/05/03 01:07:58;;;;;;;;;;;;;;;21.08;52.47;100050.97;5076504;28;768;-55
2021/05/03 01:10:23;;;;;;;;;;;;;;;20.82;52.08;100051.72;5076786;28;1040;-62
2021/05/03 01:12:49;;;;;;;;;;;;;;;21.05;52.88;100046.09;5076483;28;799;-62
2021/05/03 01:15:14;;;;;;;;;;;;;;;21.53;51.61;100045.22;5075166;28;983;-59
2021/05/03 01:17:41;;;;;;;;;;;;;;;21.84;50.45;100035.94;5076087;28;970;-62
2021/05/03 01:20:13;;;;;;;;;;;;;;;22.05;50.03;100032.47;5076510;28;759;-51
2021/05/03 01:22:38;;;;;;;;;;;;;;;22.07;49.90;100027.41;5076615;28;764;-62
2021/05/03 01:25:05;;;;;;;;;;;;;;;22.31;49.13;100029.63;5076344;28;1910;-56
2021/05/03 01:27:30;;;;;;;;;;;;;;;22.32;49.19;100016.59;5076406;28;806;-58
2021/05/03 01:29:56;;;;;;;;;;;;;;;21.84;50.44;100016.56;5076369;28;762;-62
2021/05/03 01:32:21;;;;;;;;;;;;;;;21.65;51.22;100021.63;5076107;28;1010;-55
2021/05/03 01:34:47;;;;;;;;;;;;;;;21.37;50.93;100022.72;5076250;28;739;-56
2021/05/03 01:37:15;;;;;;;;;;;;;;;21.30;52.06;100014.09;5076295;28;783;-62
2021/05/03 01:39:41;;;;;;;;;;;;;;;21.70;50.96;100010.41;5079312;28;748;-53
2021/05/03 01:42:06;;;;;;;;;;;;;;;21.83;50.39;100003.84;5080358;28;755;-62
2021/05/03 01:44:32;;;;;;;;;;;;;;;22.00;50.06;99994.69;5080221;28;2015;-52
2021/05/03 01:46:57;;;;;;;;;;;;;;;22.25;49.34;99991.38;5080114;28;1018;-56
2021/05/03 01:49:23;;;;;;;;;;;;;;;22.32;49.39;99992.47;5078842;28;771;-60
2021/05/03 01:51:48;;;;;;;;;;;;;;;22.01;49.98;99999.09;5079937;28;843;-60
2021/05/03 01:54:14;;;;;;;;;;;;;;;21.40;51.56;100001.91;5079935;28;855;-51
2021/05/03 01:56:39;;;;;;;;;;;;;;;21.27;51.47;100002.88;5079997;28;823;-57
2021/05/03 01:59:05;;;;;;;;;;;;;;;21.22;52.02;100011.31;5078561;28;806;-59
2021/05/03 02:01:31;;;;;;;;;;;;;;;21.69;50.96;100011.53;5079446;28;1023;-62
2021/05/03 02:03:56;;;;;;;;;;;;;;;21.83;50.64;100014.13;5078719;28;1905;-54
2021/05/03 02:06:22;;;;;;;;;;;;;;;22.17;49.62;100024.28;5079604;28;800;-62
2021/05/03 02:08:49;;;;;;;;;;;;;;;22.32;49.14;100038.75;5079679;28;759;-63
2021/05/03 02:11:14;;;;;;;;;;;;;;;22.39;49.03;100039.09;5079664;28;1175;-53
2021/05/03 02:13:40;;;;;;;;;;;;;;;22.17;49.58;100045.63;5079328;28;780;-56
2021/05/03 02:16:05;;;;;;;;;;;;;;;21.90;50.18;100044.06;5080219;28;748;-52
2021/05/03 02:18:31;;;;;;;;;;;;;;;21.73;50.03;100054.00;5079343;28;1005;-63
2021/05/03 02:20:56;;;;;;;;;;;;;;;21.74;49.41;100055.66;5079525;28;795;-63
2021/05/03 02:23:22;;;;;;;;;;;;;;;21.48;50.00;100042.56;5079443;28;867;-52
2021/05/03 02:25:47;;;;;;;;;;;;;;;21.67;49.77;100055.28;5079263;28;1917;-63
2021/05/03 02:28:12;;;;;;;;;;;;;;;21.70;50.43;100060.19;5079547;28;807;-54
2021/05/03 02:30:38;;;;;;;;;;;;;;;21.70;50.85;100062.97;5079913;28;794;-54
2021/05/03 02:33:04;;;;;;;;;;;;;;;21.81;50.75;100053.19;5078672;28;959;-57
2021/05/03 02:35:31;;;;;;;;;;;;;;;21.93;50.29;100046.19;5079116;28;556;-55
2021/05/03 02:37:59;;;;;;;;;;;;;;;22.05;50.03;100043.56;5079327;28;743;-60
2021/05/03 02:40:24;;;;;;;;;;;;;;;22.02;49.99;100033.13;5079334;28;751;-58
2021/05/03 02:42:50;;;;;;;;;;;;;;;22.07;49.89;100044.03;5079086;28;763;-57
2021/05/03 02:45:16;;;;;;;;;;;;;;;21.99;50.02;100039.31;5077838;28;1909;-59
2021/05/03 02:47:41;;;;;;;;;;;;;;;21.76;50.86;100042.28;5078537;28;962;-55
2021/05/03 02:50:07;;;;;;;;;;;;;;;22.08;49.89;100034.59;5078724;28;811;-60
2021/05/03 02:52:33;;;;;;;;;;;;;;;22.04;50.12;100041.91;5077771;28;819;-64
2021/05/03 02:54:58;;;;;;;;;;;;;;;22.01;50.01;100048.13;5078763;28;756;-57
2021/05/03 02:57:24;;;;;;;;;;;;;;;22.10;49.95;100045.34;5079134;28;736;-62
2021/05/03 02:59:49;;;;;;;;;;;;;;;22.31;49.38;100062.06;5079175;28;760;-56
2021/05/03 03:02:15;;;;;;;;;;;;;;;22.26;49.39;100076.06;5078304;28;966;-51
2021/05/03 03:04:40;;;;;;;;;;;;;;;22.28;49.33;100080.16;5078529;28;1918;-55
2021/05/03 03:07:06;;;;;;;;;;;;;;;22.21;49.52;100083.41;5078699;28;827;-62
2021/05/03 03:09:31;;;;;;;;;;;;;;;22.28;49.52;100091.22;5078659;28;793;-57
2021/05/03 03:11:58;;;;;;;;;;;;;;;22.26;49.52;100099.06;5078545;28;1051;-53
2021/05/03 03:14:24;;;;;;;;;;;;;;;22.27;49.51;100122.00;5078398;28;836;-55
2021/05/03 03:16:49;;;;;;;;;;;;;;;22.33;49.41;100137.31;5078024;28;939;-57
2021/05/03 03:19:15;;;;;;;;;;;;;;;21.44;51.77;100118.25;5078570;28;739;-60
2021/05/03 03:21:40;;;;;;;;;;;;;;;21.26;51.99;100140.31;5077029;28;1091;-60
2021/05/03 03:24:06;;;;;;;;;;;;;;;21.08;51.43;100139.44;5078491;28;1976;-48
2021/05/03 03:26:31;;;;;;;;;;;;;;;21.47;51.58;100146.03;5078378;28;791;-50
2021/05/03 03:28:57;;;;;;;;;;;;;;;21.83;50.56;100152.50;5077764;28;743;-53
2021/05/03 03:31:22;;;;;;;;;;;;;;;22.17;49.75;100146.13;5059974;28;983;-62
2021/05/03 03:33:47;;;;;;;;;;;;;;;22.32;49.41;100168.94;5078049;28;799;-62
2021/05/03 03:36:13;;;;;;;;;;;;;;;22.25;49.56;100176.94;5077979;28;827;-54
2021/05/03 03:38:38;;;;;;;;;;;;;;;21.47;51.59;100179.25;5078151;28;838;-50
2021/05/03 03:41:04;;;;;;;;;;;;;;;21.05;52.21;100167.72;5078614;28;752;-51
2021/05/03 03:43:29;;;;;;;;;;;;;;;21.03;52.40;100170.00;5077647;28;779;-57
2021/05/03 03:45:55;;;;;;;;;;;;;;;21.48;51.38;100164.28;5077991;28;807;-59
2021/05/03 03:48:20;;;;;;;;;;;;;;;21.85;50.54;100170.41;5077551;28;974;-60
2021/05/03 03:50:46;;;;;;;;;;;;;;;22.05;49.89;100182.78;5077694;28;818;-52
2021/05/03 03:53:11;;;;;;;;;;;;;;;22.24;49.67;100189.16;5078048;28;825;-52
2021/05/03 03:55:37;;;;;;;;;;;;;;;21.75;50.71;100178.19;5067827;28;819;-66
2021/05/03 03:58:03;;;;;;;;;;;;;;;21.70;50.98;100187.47;5056324;28;874;-64
2021/05/03 04:00:29;;;;;;;;;;;;;;;21.58;49.88;100173.47;5057697;28;748;-60
2021/05/03 04:02:55;;;;;;;;;;;;;;;21.70;50.92;100176.41;5070236;28;971;-64
2021/05/03 04:10:50;;;;;;;;;;;;;;;22.07;49.84;100201.84;5077256;28;1048;-64
2021/05/03 04:21:25;;;;;;;;;;;;;;;21.85;50.58;100188.94;5077487;28;744;-52
2021/05/03 04:24:05;;;;;;;;;;;;;;;22.27;49.76;100192.06;5076868;28;1987;-54
2021/05/03 04:26:31;;;;;;;;;;;;;;;22.27;49.38;100205.09;5077169;28;850;-49
2021/05/03 04:28:56;;;;;;;;;;;;;;;21.87;50.59;100223.47;5077062;28;819;-54
2021/05/03 04:31:22;;;;;;;;;;;;;;;21.76;51.02;100229.66;5076474;28;1006;-63
2021/05/03 04:33:47;;;;;;;;;;;;;;;21.32;50.15;100232.22;5077454;28;759;-64
2021/05/03 04:36:13;;;;;;;;;;;;;;;21.57;51.74;100235.44;5076993;28;823;-64
2021/05/03 04:38:38;;;;;;;;;;;;;;;22.01;50.19;100241.91;5076952;28;756;-51
2021/05/03 04:41:04;;;;;;;;;;;;;;;22.30;49.73;100235.75;5036140;28;1938;-54
2021/05/03 04:43:29;;;;;;;;;;;;;;;21.88;50.52;100233.41;5054393;28;829;-51
2021/05/03 04:45:55;;;;;;;;;;;;;;;21.69;50.46;100227.34;5055886;28;1906;-64
2021/05/03 04:48:21;;;;;;;;;;;;;;;21.68;50.19;100234.00;5055988;28;817;-56
2021/05/03 04:50:46;;;;;;;;;;;;;;;21.68;49.55;100242.31;5056268;28;801;-50
2021/05/03 04:53:11;;;;;;;;;;;;;;;21.83;50.82;100247.41;5056086;28;764;-48
2021/05/03 04:55:37;;;;;;;;;;;;;;;22.32;49.58;100249.25;5038990;28;868;-54
2021/05/03 04:58:02;;;;;;;;;;;;;;;21.93;50.50;100256.53;5056620;28;788;-54
2021/05/03 05:00:28;;;;;;;;;;;;;;;21.91;50.78;100253.28;5055616;28;783;-48
2021/05/03 05:02:53;;;;;;;;;;;;;;;21.78;49.77;100252.28;5055987;28;944;-49
2021/05/03 05:05:19;;;;;;;;;;;;;;;21.42;48.80;100265.16;5056421;28;1983;-58
2021/05/03 05:07:44;;;;;;;;;;;;;;;21.63;51.15;100275.66;5056318;28;843;-64
2021/05/03 05:10:10;;;;;;;;;;;;;;;22.05;50.70;100274.16;5056323;28;858;-48
2021/05/03 05:12:35;;;;;;;;;;;;;;;22.38;49.44;100272.91;5056094;28;906;-50
2021/05/03 05:15:01;;;;;;;;;;;;;;;21.95;50.66;100277.25;5052373;28;1497;-51
2021/05/03 05:17:27;;;;;;;;;;;;;;;21.90;50.40;100290.41;5056251;28;1014;-50
2021/05/03 05:19:52;;;;;;;;;;;;;;;21.49;49.72;100293.16;5065679;28;783;-67
2021/05/03 05:22:18;;;;;;;;;;;;;;;21.43;49.75;100299.94;5054981;28;909;-61
2021/05/03 05:24:43;;;;;;;;;;;;;;;21.67;51.70;100304.31;5045898;28;1922;-53
2021/05/03 05:27:09;;;;;;;;;;;;;;;21.83;51.12;100299.19;5036230;28;768;-52
2021/05/03 05:29:34;;;;;;;;;;;;;;;21.97;50.53;100297.09;5048140;28;885;-45
2021/05/03 05:32:00;;;;;;;;;;;;;;;21.88;50.67;100304.53;5061815;28;986;-56
2021/05/03 05:34:25;;;;;;;;;;;;;;;21.95;50.44;100296.63;5076093;28;747;-65
2021/05/03 05:36:50;;;;;;;;;;;;;;;21.93;50.53;100284.22;5076534;28;819;-50
2021/05/03 05:39:16;;;;;;;;;;;;;;;22.00;50.21;100304.75;5076287;28;743;-71
2021/05/03 05:41:42;;;;;;;;;;;;;;;22.04;50.17;100302.16;5076126;28;795;-63
2021/05/03 05:44:07;;;;;;;;;;;;;;;21.90;50.68;100296.75;5073510;28;2004;-65
2021/05/03 05:46:36;;;;;;;;;;;;;;;21.69;51.10;100297.34;5058636;28;960;-66
2021/05/03 05:49:01;;;;;;;;;;;;;;;21.69;51.03;100297.34;5075933;28;783;-44
2021/05/03 05:51:27;;;;;;;;;;;;;;;21.17;51.85;100299.84;5075838;28;779;-54
2021/05/03 05:53:52;;;;;;;;;;;;;;;21.49;51.75;100314.47;5076140;28;824;-51
2021/05/03 05:56:18;;;;;;;;;;;;;;;22.15;49.90;100320.09;5075904;28;748;-51
2021/05/03 05:58:43;;;;;;;;;;;;;;;22.08;50.00;100313.38;5076038;28;814;-53
2021/05/03 06:01:09;;;;;;;;;;;;;;;21.98;50.33;100309.81;5076104;28;771;-49
2021/05/03 06:03:34;;;;;;;;;;;;;;;21.83;49.70;100305.53;5065898;28;1247;-47
2021/05/03 06:06:00;;;;;;;;;;;;;;;21.68;48.57;100308.72;5045331;28;799;-56
2021/05/03 06:08:26;;;;;;;;;;;;;;;21.78;48.58;100313.16;5037674;28;859;-55
2021/05/03 06:10:51;;;;;;;;;;;;;;;21.96;50.53;100316.78;5035756;28;1203;-60
2021/05/03 06:13:17;;;;;;;;;;;;;;;22.33;49.67;100320.13;5035673;28;759;-63
2021/05/03 06:15:42;;;;;;;;;;;;;;;22.16;49.91;100313.44;5035960;28;834;-46
2021/05/03 06:18:08;;;;;;;;;;;;;;;22.19;49.89;100314.75;5067165;28;960;-46
2021/05/03 06:20:34;;;;;;;;;;;;;;;21.62;50.08;100307.25;5068166;28;860;-49
2021/05/03 06:23:03;;;;;;;;;;;;;;;21.15;51.74;100322.28;5052833;28;979;-64
2021/05/03 06:25:29;;;;;;;;;;;;;;;21.53;51.18;100309.94;5051649;28;1977;-57
2021/05/03 06:27:56;;;;;;;;;;;;;;;21.58;50.93;100314.56;5055806;28;1023;-46
2021/05/03 06:30:23;;;;;;;;;;;;;;;21.72;50.92;100317.22;5056587;28;1150;-62
2021/05/03 06:32:50;;;;;;;;;;;;;;;21.77;50.76;100306.81;5057199;28;829;-65
2021/05/03 06:35:16;;;;;;;;;;;;;;;21.82;50.59;100298.34;5059101;28;759;-48
2021/05/03 06:37:42;;;;;;;;;;;;;;;21.88;50.54;100301.78;5058599;28;872;-63
2021/05/03 06:40:09;;;;;;;;;;;;;;;21.86;50.23;100293.78;5057861;28;960;-45
2021/05/03 06:42:35;;;;;;;;;;;;;;;21.98;49.93;100297.91;5059073;28;829;-59
2021/05/03 06:45:01;;;;;;;;;;;;;;;21.80;50.39;100311.69;5057240;28;1975;-62
2021/05/03 06:47:28;;;;;;;;;;;;;;;21.89;50.34;100317.25;5058715;28;839;-48
2021/05/03 06:49:54;;;;;;;;;;;;;;;21.68;50.92;100333.63;5058644;28;898;-51
2021/05/03 06:52:22;;;;;;;;;;;;;;;21.64;50.81;100344.53;5058556;28;808;-47
2021/05/03 06:54:49;;;;;;;;;;;;;;;21.24;51.14;100347.19;5058546;28;1018;-59
2021/05/03 06:57:16;;;;;;;;;;;;;;;21.42;51.60;100359.19;5059218;28;803;-50
2021/05/03 06:59:42;;;;;;;;;;;;;;;22.01;49.91;100350.69;5058711;28;792;-65
2021/05/03 07:02:10;;;;;;;;;;;;;;;22.14;49.39;100348.91;5058656;28;743;-66
2021/05/03 07:04:37;;;;;;;;;;;;;;;21.91;50.33;100362.06;5058671;28;1921;-55
2021/05/03 07:07:03;;;;;;;;;;;;;;;21.88;49.87;100365.44;5058841;28;821;-49
2021/05/03 07:09:32;;;;;;;;;;;;;;;21.53;49.05;100366.13;5058311;28;1013;-70
2021/05/03 07:12:01;;;;;;;;;;;;;;;21.69;48.43;100351.88;5058209;28;1476;-48
2021/05/03 07:14:27;;;;;;;;;;;;;;;21.92;50.26;100358.13;5058238;28;798;-65
2021/05/03 07:16:53;;;;;;;;;;;;;;;22.30;49.42;100357.59;5056636;28;875;-46
2021/05/03 07:19:20;;;;;;;;;;;;;;;22.12;49.61;100370.59;5058354;28;783;-46
2021/05/03 07:21:46;;;;;;;;;;;;;;;22.10;49.81;100366.50;5058627;28;775;-47
2021/05/03 07:24:12;;;;;;;;;;;;;;;21.86;49.51;100367.72;5057929;28;1971;-51
2021/05/03 07:26:40;;;;;;;;;;;;;;;21.52;48.87;100352.59;5058385;28;818;-50
2021/05/03 07:29:15;;;;;;;;;;;;;;;21.55;51.16;100356.69;5055520;28;1226;-64
2021/05/03 07:31:41;;;;;;;;;;;;;;;22.10;49.98;100361.78;5055652;28;868;-45
2021/05/03 07:34:07;;;;;;;;;;;;;;;22.33;49.31;100364.44;5040485;28;1087;-62
2021/05/03 07:36:34;;;;;;;;;;;;;;;21.85;50.66;100363.31;5057883;28;836;-44
2021/05/03 07:39:00;;;;;;;;;;;;;;;21.84;50.47;100362.50;5057703;28;975;-63
2021/05/03 07:41:26;;;;;;;;;;;;;;;21.59;50.09;100341.06;5058025;28;842;-47
2021/05/03 07:43:52;;;;;;;;;;;;;;;21.45;50.50;100335.63;5057555;28;1918;-52
2021/05/03 07:46:24;;;;;;;;;;;;;;;21.91;50.53;100336.31;5039932;28;851;-49
2021/05/03 07:48:50;;;;;;;;;;;;;;;22.26;49.58;100336.41;5036594;28;2341;-53
2021/05/03 07:51:15;;;;;;;;;;;;;;;21.84;50.49;100343.13;5009912;28;10253;-65
2021/05/03 07:53:41;;;;;;;;;;;;;;;21.93;50.46;100339.59;5061810;28;963;-46
2021/05/03 07:56:07;;;;;;;;;;;;;;;21.74;50.16;100342.59;5077769;28;838;-53
2021/05/03 07:58:32;;;;;;;;;;;;;;;21.48;49.26;100346.84;5077512;28;795;-64
2021/05/03 08:00:57;;;;;;;;;;;;;;;21.85;50.62;100330.94;5078240;28;830;-47
2021/05/03 08:03:23;;;;;;;;;;;;;;;22.29;49.49;100335.78;5059395;28;2112;-43
2021/05/03 08:05:49;;;;;;;;;;;;;;;21.99;49.85;100346.59;5076300;28;1975;-49
2021/05/03 08:08:15;;;;;;;;;;;;;;;21.84;50.54;100348.69;5077167;28;938;-52
2021/05/03 08:10:40;;;;;;;;;;;;;;;21.72;50.62;100340.16;5049775;28;1477;-50
2021/05/03 08:13:06;;;;;;;;;;;;;;;21.56;49.84;100336.16;5037149;28;744;-45
2021/05/03 08:15:31;;;;;;;;;;;;;;;21.65;51.10;100323.19;5037702;28;814;-47
2021/05/03 08:17:57;;;;;;;;;;;;;;;21.99;50.19;100329.97;5037671;28;843;-46
2021/05/03 08:20:22;;;;;;;;;;;;;;;22.43;49.13;100330.09;5037313;28;820;-47
2021/05/03 08:22:48;;;;;;;;;;;;;;;21.97;50.03;100319.25;5037221;28;761;-48
2021/05/03 08:25:13;;;;;;;;;;;;;;;22.10;49.78;100328.53;5036144;28;1902;-45
2021/05/03 08:27:39;;;;;;;;;;;;;;;21.77;50.28;100323.41;5057212;28;756;-44
2021/05/03 08:30:05;;;;;;;;;;;;;;;21.42;49.52;100320.47;5057128;28;768;-61
2021/05/03 08:32:31;;;;;;;;;;;;;;;21.44;51.77;100311.84;5055448;28;796;-47
2021/05/03 08:34:56;;;;;;;;;;;;;;;21.90;50.71;100305.06;5057012;28;828;-46
2021/05/03 08:37:21;;;;;;;;;;;;;;;22.32;49.53;100319.31;5057268;28;945;-52
2021/05/03 08:39:47;;;;;;;;;;;;;;;21.99;50.08;100316.97;5056611;28;962;-46
2021/05/03 08:42:14;;;;;;;;;;;;;;;21.98;50.20;100309.81;5056657;28;825;-46
2021/05/03 08:44:47;;;;;;;;;;;;;;;21.52;50.29;100302.81;5056803;28;1905;-64
2021/05/03 08:47:13;;;;;;;;;;;;;;;21.23;50.46;100317.91;5054581;28;865;-45
2021/05/03 08:50:05;;;;;;;;;;;;;;;21.83;51.00;100308.28;5056717;28;1057;-45
2021/05/03 08:52:42;;;;;;;;;;;;;;;22.18;49.80;100325.00;5055524;28;804;-47
2021/05/03 08:55:10;;;;;;;;;;;;;;;21.86;50.57;100335.31;5056921;28;1007;-59
2021/05/03 08:57:36;;;;;;;;;;;;;;;21.94;50.32;100335.69;5056688;28;771;-46
2021/05/03 09:00:01;;;;;;;;;;;;;;;21.73;50.19;100340.97;5056812;28;823;-47
2021/05/03 09:02:26;;;;;;;;;;;;;;;21.37;49.59;100332.47;5056326;28;811;-46
2021/05/03 09:04:52;;;;;;;;;;;;;;;21.80;50.79;100347.69;5056157;28;2041;-45
2021/05/03 09:07:19;;;;;;;;;;;;;;;22.19;49.69;100340.47;5056362;28;747;-44
2021/05/03 09:09:53;;;;;;;;;;;;;;;22.09;49.76;100337.19;5069622;28;959;-47
2021/05/03 09:12:21;;;;;;;;;;;;;;;21.97;50.41;100340.59;5076040;28;1151;-45
2021/05/03 09:15:07;;;;;;;;;;;;;;;21.73;50.51;100341.78;5076333;28;798;-44
2021/05/03 09:17:33;;;;;;;;;;;;;;;21.27;50.11;100343.81;5076256;28;1235;-46
2021/05/03 09:20:00;;;;;;;;;;;;;;;21.47;51.28;100342.44;5076417;28;747;-63
2021/05/03 09:22:25;;;;;;;;;;;;;;;21.99;50.33;100339.13;5076961;28;774;-44
2021/05/03 09:24:51;;;;;;;;;;;;;;;22.25;49.41;100326.47;5076113;28;1973;-44
2021/05/03 09:27:19;;;;;;;;;;;;;;;21.73;50.76;100311.34;5076198;28;819;-44
2021/05/03 09:29:44;;;;;;;;;;;;;;;21.80;50.52;100313.66;5076257;28;784;-62
2021/05/03 09:32:11;;;;;;;;;;;;;;;21.57;50.50;100315.69;5076529;28;810;-50
2021/05/03 09:34:37;;;;;;;;;;;;;;;21.37;49.45;100315.06;5076609;28;771;-46
2021/05/03 09:37:21;;;;;;;;;;;;;;;21.99;50.39;100321.69;5076249;28;767;-45
2021/05/03 09:39:53;;;;;;;;;;;;;;;22.22;49.49;100320.44;5076038;28;950;-51
2021/05/03 09:42:19;;;;;;;;;;;;;;;21.95;50.16;100299.38;5075976;28;839;-45
2021/05/03 09:45:02;;;;;;;;;;;;;;;22.00;49.92;100309.47;5054019;28;1981;-45
2021/05/03 09:47:28;;;;;;;;;;;;;;;21.72;49.93;100317.22;5055444;28;734;-47
2021/05/03 09:49:54;;;;;;;;;;;;;;;21.32;49.48;100318.78;5055713;28;876;-47
2021/05/03 09:52:19;;;;;;;;;;;;;;;21.69;50.89;100325.00;5056480;28;738;-51
2021/05/03 09:54:44;;;;;;;;;;;;;;;22.14;49.65;100307.38;5055714;28;955;-62
2021/05/03 09:57:11;;;;;;;;;;;;;;;22.20;49.37;100311.66;5055683;28;783;-45
2021/05/03 09:59:47;;;;;;;;;;;;;;;21.78;50.63;100318.69;5051095;28;862;-45
2021/05/03 10:02:24;;;;;;;;;;;;;;;21.67;50.51;100316.22;5059857;28;755;-45
2021/05/03 10:04:51;;;;;;;;;;;;;;;21.45;50.13;100324.56;5059509;28;1913;-47
2021/05/03 10:07:20;;;;;;;;;;;;;;;21.37;51.48;100323.38;5060107;28;855;-44
2021/05/03 10:09:49;;;;;;;;;;;;;;;21.97;50.13;100316.47;5073309;28;971;-50
2021/05/03 10:12:15;;;;;;;;;;;;;;;22.16;49.38;100321.75;5079577;28;1079;-45
2021/05/03 10:14:40;;;;;;;;;;;;;;;21.92;50.04;100324.91;5080267;28;728;-47
2021/05/03 10:17:06;;;;;;;;;;;;;;;21.97;49.82;100335.84;5079592;28;827;-48
2021/05/03 10:19:32;;;;;;;;;;;;;;;21.75;49.75;100319.34;5078375;28;1168;-47
2021/05/03 10:21:58;;;;;;;;;;;;;;;21.33;48.57;100327.91;5079497;28;791;-45
2021/05/03 10:24:23;;;;;;;;;;;;;;;21.95;50.20;100337.31;5079310;28;1905;-45
2021/05/03 10:26:49;;;;;;;;;;;;;;;22.23;49.41;100332.31;5077937;28;815;-46
2021/05/03 10:29:25;;;;;;;;;;;;;;;21.98;49.58;100353.25;5079213;28;811;-46
2021/05/03 10:32:03;;;;;;;;;;;;;;;21.94;50.02;100357.84;5079198;28;790;-45
2021/05/03 10:34:41;;;;;;;;;;;;;;;21.67;50.09;100351.34;5079265;28;778;-45
2021/05/03 10:37:25;;;;;;;;;;;;;;;21.26;49.03;100349.66;5061090;28;811;-45
2021/05/03 10:39:50;;;;;;;;;;;;;;;21.77;50.59;100345.56;5053311;28;808;-62
2021/05/03 10:42:16;;;;;;;;;;;;;;;22.12;49.57;100356.75;5021858;28;1305;-57
2021/05/03 10:45:00;;;;;;;;;;;;;;;22.19;49.24;100359.06;5039700;28;1969;-54
2021/05/03 10:47:26;;;;;;;;;;;;;;;21.92;50.11;100344.28;5044112;28;1533;-62
2021/05/03 10:49:51;;;;;;;;;;;;;;;21.92;49.67;100349.03;5059056;28;767;-47
2021/05/03 10:52:25;;;;;;;;;;;;;;;21.37;50.30;100362.88;5058936;28;755;-48
2021/05/03 10:54:52;;;;;;;;;;;;;;;21.23;49.76;100362.16;5071365;28;1306;-53
2021/05/03 10:57:20;;;;;;;;;;;;;;;21.73;50.79;100358.41;5079017;28;826;-63
2021/05/03 10:59:46;;;;;;;;;;;;;;;22.02;50.11;100368.09;5078833;28;759;-58
2021/05/03 11:02:13;;;;;;;;;;;;;;;22.41;48.83;100360.09;5078689;28;778;-66
2021/05/03 11:04:39;;;;;;;;;;;;;;;22.39;48.58;100352.09;5078683;28;1909;-64
2021/05/03 11:07:05;;;;;;;;;;;;;;;22.03;49.52;100348.44;5078558;28;794;-64
2021/05/03 11:09:35;;;;;;;;;;;;;;;22.09;49.31;100349.09;5078317;28;1022;-59
2021/05/03 11:12:06;;;;;;;;;;;;;;;21.79;49.07;100351.56;5077977;28;1044;-47
2021/05/03 11:14:38;;;;;;;;;;;;;;;21.48;50.08;100341.31;5078478;28;779;-62
2021/05/03 11:17:09;;;;;;;;;;;;;;;21.64;50.80;100360.31;5078454;28;783;-46
2021/05/03 11:19:39;;;;;;;;;;;;;;;21.88;49.88;100360.75;5078523;28;893;-46
2021/05/03 11:22:07;;;;;;;;;;;;;;;21.76;50.28;100365.25;5078191;28;779;-48
2021/05/03 11:24:38;;;;;;;;;;;;;;;21.78;50.04;100366.53;5077923;28;1909;-48
2021/05/03 11:29:38;;;;;;;;;;;;;;;21.83;49.89;100362.84;5078463;28;755;-45
2021/05/03 11:32:04;;;;;;;;;;;;;;;21.90;49.95;100370.69;5078108;28;847;-61
2021/05/03 11:37:03;;;;;;;;;;;;;;;21.70;50.20;100364.56;5077961;28;867;-61
2021/05/03 11:39:38;;;;;;;;;;;;;;;21.46;50.73;100371.25;5077678;28;954;-62
2021/05/03 11:43:01;;;;;;;;;;;;;;;21.14;50.99;100370.41;5078016;28;771;-60
2021/05/03 11:44:59;;;;;;;;;;;;;;;21.42;50.89;100373.03;5069762;28;1914;-52
2021/05/03 11:47:28;;;;;;;;;;;;;;;21.92;49.47;100387.78;5075677;28;891;-48
2021/05/03 11:49:54;;;;;;;;;;;;;;;22.19;48.83;100386.75;5057682;28;775;-53
2021/05/03 11:52:28;;;;;;;;;;;;;;;21.93;49.61;100389.41;5058165;28;787;-49
2021/05/03 11:54:55;;;;;;;;;;;;;;;21.81;49.48;100362.31;5071091;28;1229;-56
2021/05/03 11:57:21;;;;;;;;;;;;;;;21.69;49.09;100371.25;5076300;28;1278;-59
2021/05/03 11:59:46;;;;;;;;;;;;;;;21.55;48.15;100374.09;5078136;28;786;-47
2021/05/03 12:02:13;;;;;;;;;;;;;;;21.64;49.82;100357.53;5077407;28;827;-55
2021/05/03 12:04:45;;;;;;;;;;;;;;;22.08;49.44;100358.53;5077351;28;1985;-48
2021/05/03 12:07:10;;;;;;;;;;;;;;;22.13;48.99;100372.22;5077562;28;815;-49
2021/05/03 12:09:35;;;;;;;;;;;;;;;22.07;49.11;100381.00;5077222;28;1020;-47
2021/05/03 12:12:01;;;;;;;;;;;;;;;22.25;48.69;100373.56;5076999;28;1028;-49
2021/05/03 12:14:38;;;;;;;;;;;;;;;21.78;48.25;100379.56;5077644;28;745;-63
2021/05/03 12:17:17;;;;;;;;;;;;;;;21.53;46.78;100370.81;5077337;28;807;-47
2021/05/03 12:19:43;;;;;;;;;;;;;;;21.86;50.41;100359.41;5076963;28;767;-48
2021/05/03 12:22:08;;;;;;;;;;;;;;;22.33;48.99;100379.16;5076668;28;783;-47
2021/05/03 12:24:34;;;;;;;;;;;;;;;22.13;49.06;100377.78;5074260;28;1922;-47
2021/05/03 12:27:00;;;;;;;;;;;;;;;22.19;49.14;100368.16;5057243;28;776;-55
2021/05/03 12:29:26;;;;;;;;;;;;;;;21.94;49.05;100368.91;5057156;28;756;-45
2021/05/03 12:31:51;;;;;;;;;;;;;;;21.17;49.48;100364.22;5057372;28;792;-45
2021/05/03 12:34:24;;;;;;;;;;;;;;;21.42;50.79;100358.34;5052888;28;859;-46
2021/05/03 12:37:04;;;;;;;;;;;;;;;21.50;50.96;100380.56;5057135;28;772;-53
2021/05/03 12:39:30;;;;;;;;;;;;;;;21.73;50.28;100369.47;5056443;28;877;-49
2021/05/03 12:41:56;;;;;;;;;;;;;;;21.68;50.21;100370.41;5056372;28;820;-59
2021/05/03 12:44:25;;;;;;;;;;;;;;;21.76;49.98;100368.81;5056357;28;1914;-46
2021/05/03 12:46:50;;;;;;;;;;;;;;;21.85;49.63;100378.00;5055539;28;806;-59
2021/05/03 12:49:27;;;;;;;;;;;;;;;21.83;49.49;100383.00;5055930;28;900;-50
2021/05/03 12:52:03;;;;;;;;;;;;;;;21.81;49.42;100385.28;5056595;28;1062;-61
2021/05/03 12:54:45;;;;;;;;;;;;;;;21.45;50.35;100386.22;5056376;28;951;-51
2021/05/03 12:57:25;;;;;;;;;;;;;;;21.43;50.37;100398.72;5056785;28;787;-52
2021/05/03 13:00:08;;;;;;;;;;;;;;;21.29;50.78;100384.97;5056686;28;764;-46
2021/05/03 13:02:47;;;;;;;;;;;;;;;21.73;49.67;100390.78;5056362;28;811;-53
2021/05/03 13:05:16;;;;;;;;;;;;;;;22.17;48.44;100383.47;5056537;28;1958;-55
2021/05/03 13:10:32;;;;;;;;;;;;;;;22.12;48.69;100397.44;5054834;28;982;-48
2021/05/03 13:29:00;;;;;;;;;;;;;;;21.44;47.65;100417.75;5056312;28;783;-59
2021/05/03 13:31:26;;;;;;;;;;;;;;;21.69;49.06;100416.31;5056477;28;752;-59